createdAt,value
2019-03-17T00:00:00.904Z,94790.02
2019-03-17T00:02:30.379Z,94785.78
2019-03-17T00:04:59.867Z,94798.77
2019-03-17T00:07:29.340Z,94797.05
2019-03-17T00:09:58.838Z,94800.35
2019-03-17T00:12:31.296Z,94794.11
2019-03-17T00:15:05.020Z,94797.03
2019-03-17T00:17:30.805Z,94802.70
2019-03-17T00:20:00.400Z,94800.34
2019-03-17T00:22:30.106Z,94802.77
2019-03-17T00:25:08.586Z,94793.60
2019-03-17T00:27:30.772Z,94797.14
2019-03-17T00:30:00.482Z,94797.02
2019-03-17T00:32:30.018Z,94797.22
2019-03-17T00:34:59.527Z,94790.16
2019-03-17T00:37:29.006Z,94795.17
2019-03-17T00:39:58.522Z,94799.52
2019-03-17T00:42:28.028Z,94794.55
2019-03-17T00:44:59.731Z,94789.84
2019-03-17T00:47:29.229Z,94788.56
2019-03-17T00:49:58.742Z,94794.20
2019-03-17T00:52:28.268Z,94796.11
2019-03-17T00:54:58.719Z,94793.25
2019-03-17T00:57:28.170Z,94791.00
2019-03-17T00:59:57.670Z,94789.80
2019-03-17T01:02:27.129Z,94777.89
2019-03-17T01:04:56.746Z,94778.52
2019-03-17T01:07:26.197Z,94784.77
2019-03-17T01:09:55.678Z,94786.88
2019-03-17T01:12:25.222Z,94793.98
2019-03-17T01:14:54.700Z,94795.19
2019-03-17T01:17:24.276Z,94787.83
2019-03-17T01:19:53.764Z,94798.85
2019-03-17T01:22:23.246Z,94796.80
2019-03-17T01:24:52.790Z,94807.57
2019-03-17T01:27:22.270Z,94804.52
2019-03-17T01:29:51.751Z,94798.53
2019-03-17T01:32:21.201Z,94803.86
2019-03-17T01:34:50.739Z,94804.17
2019-03-17T01:37:20.218Z,94804.17
2019-03-17T01:39:49.692Z,94800.94
2019-03-17T01:42:19.179Z,94804.55
2019-03-17T01:44:48.643Z,94804.41
2019-03-17T01:47:18.128Z,94811.83
2019-03-17T01:49:47.597Z,94810.92
2019-03-17T01:52:17.091Z,94811.67
2019-03-17T01:54:46.562Z,94815.25
2019-03-17T01:57:16.022Z,94818.02
2019-03-17T01:59:45.471Z,94820.45
2019-03-17T02:02:14.974Z,94808.49
2019-03-17T02:04:44.438Z,94806.06
2019-03-17T02:07:13.922Z,94809.98
2019-03-17T02:09:43.366Z,94811.23
2019-03-17T02:12:12.875Z,94814.81
2019-03-17T02:14:42.451Z,94814.12
2019-03-17T02:17:11.892Z,94808.45
2019-03-17T02:19:41.379Z,94806.96
2019-03-17T02:22:10.841Z,94803.44
2019-03-17T02:24:40.325Z,94808.23
2019-03-17T02:27:09.780Z,94815.27
2019-03-17T02:29:39.255Z,94818.75
2019-03-17T02:32:08.802Z,94820.77
2019-03-17T02:34:38.263Z,94821.87
2019-03-17T02:37:07.775Z,94817.89
2019-03-17T02:39:37.256Z,94814.27
2019-03-17T02:42:06.748Z,94823.43
2019-03-17T02:44:36.217Z,94840.06
2019-03-17T02:47:05.727Z,94840.10
2019-03-17T02:49:35.218Z,94839.83
2019-03-17T02:52:04.707Z,94846.55
2019-03-17T02:54:34.240Z,94855.52
2019-03-17T02:57:03.709Z,94851.50
2019-03-17T02:59:33.190Z,94859.41
2019-03-17T03:02:02.665Z,94855.86
2019-03-17T03:04:32.131Z,94862.08
2019-03-17T03:07:01.599Z,94869.19
2019-03-17T03:09:31.176Z,94874.52
2019-03-17T03:12:00.679Z,94880.56
2019-03-17T03:14:30.174Z,94879.38
2019-03-17T03:16:59.667Z,94887.20
2019-03-17T03:19:29.134Z,94888.91
2019-03-17T03:21:58.595Z,94890.76
2019-03-17T03:24:28.041Z,94896.05
2019-03-17T03:26:57.534Z,94894.36
2019-03-17T03:29:27.493Z,94898.73
2019-03-17T03:31:57.073Z,94892.33
2019-03-17T03:34:26.546Z,94894.07
2019-03-17T03:36:56.027Z,94891.69
2019-03-17T03:39:25.520Z,94887.13
2019-03-17T03:41:54.967Z,94892.05
2019-03-17T03:44:24.480Z,94891.12
2019-03-17T03:46:53.977Z,94882.16
2019-03-17T03:49:23.471Z,94888.56
2019-03-17T03:51:52.941Z,94882.58
2019-03-17T03:54:22.421Z,94878.98
2019-03-17T03:56:51.855Z,94880.03
2019-03-17T03:59:21.316Z,94883.73
2019-03-17T04:01:50.834Z,94882.30
2019-03-17T04:04:20.382Z,94888.89
2019-03-17T04:06:49.902Z,94880.19
2019-03-17T04:09:19.369Z,94879.98
2019-03-17T04:11:48.870Z,94881.66
2019-03-17T04:14:18.346Z,94879.98
2019-03-17T04:16:47.895Z,94885.13
2019-03-17T04:19:17.412Z,94888.05
2019-03-17T04:21:46.830Z,94888.19
2019-03-17T04:24:16.305Z,94890.78
2019-03-17T04:26:45.754Z,94889.89
2019-03-17T04:29:15.225Z,94891.02
2019-03-17T04:31:44.698Z,94897.73
2019-03-17T04:34:14.207Z,94895.52
2019-03-17T04:36:43.738Z,94890.60
2019-03-17T04:39:13.246Z,94898.82
2019-03-17T04:41:42.721Z,94907.05
2019-03-17T04:44:20.775Z,94910.11
2019-03-17T04:46:43.424Z,94915.59
2019-03-17T04:49:12.898Z,94920.61
2019-03-17T04:51:42.357Z,94922.40
2019-03-17T04:54:11.845Z,94920.11
2019-03-17T04:56:41.311Z,94925.59
2019-03-17T04:59:10.800Z,94920.22
2019-03-17T05:01:40.326Z,94920.54
2019-03-17T05:04:09.777Z,94926.71
2019-03-17T05:06:47.886Z,94929.71
2019-03-17T05:09:10.461Z,94939.24
2019-03-17T05:11:39.926Z,94944.96
2019-03-17T05:14:09.372Z,94943.09
2019-03-17T05:16:38.883Z,94945.21
2019-03-17T05:19:08.388Z,94941.78
2019-03-17T05:21:37.875Z,94951.39
2019-03-17T05:24:07.376Z,94954.28
2019-03-17T05:26:36.833Z,94958.20
2019-03-17T05:29:06.372Z,94959.75
2019-03-17T05:31:35.865Z,94960.48
2019-03-17T05:34:05.348Z,94961.82
2019-03-17T05:36:34.854Z,94961.82
2019-03-17T05:39:05.771Z,94961.78
2019-03-17T05:41:35.277Z,94956.92
2019-03-17T05:44:04.747Z,94956.00
2019-03-17T05:46:34.251Z,94963.05
2019-03-17T05:49:03.764Z,94963.36
2019-03-17T05:51:33.341Z,94962.91
2019-03-17T05:54:02.836Z,94964.91
2019-03-17T05:56:32.427Z,94969.91
2019-03-17T05:59:02.320Z,94967.66
2019-03-17T06:01:31.819Z,94967.52
2019-03-17T06:04:01.294Z,94967.64
2019-03-17T06:06:30.868Z,94977.08
2019-03-17T06:09:00.307Z,94971.73
2019-03-17T06:11:29.786Z,94973.70
2019-03-17T06:13:59.292Z,94973.87
2019-03-17T06:16:28.785Z,94982.98
2019-03-17T06:18:58.421Z,94986.16
2019-03-17T06:21:27.931Z,94982.27
2019-03-17T06:23:57.432Z,94984.35
2019-03-17T06:26:26.945Z,94979.14
2019-03-17T06:28:56.488Z,94977.05
2019-03-17T06:31:25.982Z,94975.20
2019-03-17T06:33:55.457Z,94974.77
2019-03-17T06:36:24.924Z,94978.22
2019-03-17T06:38:54.492Z,94978.55
2019-03-17T06:41:24.025Z,94988.56
2019-03-17T06:43:53.635Z,94987.38
2019-03-17T06:46:23.136Z,94991.42
2019-03-17T06:48:52.655Z,94992.56
2019-03-17T06:51:22.142Z,94994.37
2019-03-17T06:53:56.650Z,94996.62
2019-03-17T06:56:23.367Z,94998.36
2019-03-17T06:58:52.899Z,94992.34
2019-03-17T07:01:22.426Z,94995.09
2019-03-17T07:03:51.895Z,94997.02
2019-03-17T07:06:21.433Z,94999.94
2019-03-17T07:08:50.911Z,94996.11
2019-03-17T07:11:20.417Z,95001.00
2019-03-17T07:13:49.921Z,95000.48
2019-03-17T07:16:19.463Z,94993.01
2019-03-17T07:18:49.004Z,94987.84
2019-03-17T07:21:18.521Z,94984.20
2019-03-17T07:23:48.008Z,94985.40
2019-03-17T07:26:17.560Z,94982.84
2019-03-17T07:28:47.061Z,94982.93
2019-03-17T07:31:16.591Z,94982.09
2019-03-17T07:33:46.267Z,94991.10
2019-03-17T07:36:15.916Z,94986.02
2019-03-17T07:38:45.413Z,94988.81
2019-03-17T07:41:14.936Z,94987.50
2019-03-17T07:43:44.491Z,94987.06
2019-03-17T07:46:14.005Z,94990.16
2019-03-17T07:48:43.572Z,94989.61
2019-03-17T07:51:13.164Z,94981.58
2019-03-17T07:53:42.639Z,94982.01
2019-03-17T07:56:12.116Z,94980.86
2019-03-17T07:58:41.621Z,94980.25
2019-03-17T08:01:11.139Z,94988.34
2019-03-17T08:03:40.645Z,94988.09
2019-03-17T08:06:10.136Z,94986.94
2019-03-17T08:08:39.767Z,94976.98
2019-03-17T08:11:09.255Z,94973.94
2019-03-17T08:13:38.774Z,94976.71
2019-03-17T08:16:08.285Z,94978.78
2019-03-17T08:18:37.793Z,94979.62
2019-03-17T08:21:07.296Z,94974.23
2019-03-17T08:23:36.772Z,94972.70
2019-03-17T08:26:06.293Z,94962.91
2019-03-17T08:28:35.840Z,94971.04
2019-03-17T08:31:05.346Z,94965.26
2019-03-17T08:33:34.865Z,94967.19
2019-03-17T08:36:04.449Z,94966.02
2019-03-17T08:38:33.949Z,94960.91
2019-03-17T08:41:03.456Z,94965.09
2019-03-17T08:43:33.323Z,94955.44
2019-03-17T08:46:02.832Z,94958.45
2019-03-17T08:48:32.343Z,94956.25
2019-03-17T08:51:01.862Z,94956.80
2019-03-17T08:53:31.342Z,94960.28
2019-03-17T08:56:00.844Z,94954.19
2019-03-17T08:58:30.330Z,94953.63
2019-03-17T09:00:59.848Z,94953.36
2019-03-17T09:03:29.339Z,94946.39
2019-03-17T09:05:58.812Z,94940.80
2019-03-17T09:08:34.761Z,94938.87
2019-03-17T09:10:59.581Z,94932.23
2019-03-17T09:13:29.091Z,94934.23
2019-03-17T09:15:58.580Z,94936.71
2019-03-17T09:18:28.108Z,94936.23
2019-03-17T09:20:57.626Z,94930.38
2019-03-17T09:23:27.132Z,94923.59
2019-03-17T09:25:56.601Z,94924.67
2019-03-17T09:28:26.088Z,94921.80
2019-03-17T09:30:55.614Z,94915.80
2019-03-17T09:33:25.135Z,94914.53
2019-03-17T09:35:54.619Z,94915.44
2019-03-17T09:38:24.120Z,94912.88
2019-03-17T09:40:54.016Z,94911.23
2019-03-17T09:43:23.501Z,94910.82
2019-03-17T09:45:53.024Z,94905.61
2019-03-17T09:48:22.512Z,94900.85
2019-03-17T09:50:52.013Z,94896.63
2019-03-17T09:53:21.504Z,94895.80
2019-03-17T09:55:51.016Z,94890.06
2019-03-17T09:58:20.504Z,94888.25
2019-03-17T10:00:50.117Z,94885.45
2019-03-17T10:03:19.605Z,94882.12
2019-03-17T10:05:49.602Z,94877.33
2019-03-17T10:08:19.341Z,94875.68
2019-03-17T10:10:48.838Z,94886.30
2019-03-17T10:13:18.386Z,94871.13
2019-03-17T10:15:47.953Z,94871.01
2019-03-17T10:18:17.514Z,94874.88
2019-03-17T10:20:46.970Z,94860.93
2019-03-17T10:23:16.645Z,94864.69
2019-03-17T10:25:46.144Z,94860.83
2019-03-17T10:28:15.592Z,94863.89
2019-03-17T10:30:45.088Z,94854.88
2019-03-17T10:33:14.627Z,94856.33
2019-03-17T10:35:44.209Z,94853.51
2019-03-17T10:38:13.792Z,94851.89
2019-03-17T10:40:43.318Z,94852.00
2019-03-17T10:43:12.785Z,94844.05
2019-03-17T10:45:42.293Z,94836.38
2019-03-17T10:48:11.827Z,94842.19
2019-03-17T10:50:49.596Z,94836.73
2019-03-17T10:53:12.573Z,94844.88
2019-03-17T10:55:42.069Z,94842.12
2019-03-17T10:58:11.549Z,94837.89
2019-03-17T11:00:41.002Z,94828.77
2019-03-17T11:03:10.572Z,94828.27
2019-03-17T11:05:40.012Z,94817.89
2019-03-17T11:08:09.574Z,94820.33
2019-03-17T11:10:39.039Z,94817.27
2019-03-17T11:13:08.573Z,94812.94
2019-03-17T11:15:38.085Z,94815.48
2019-03-17T11:18:07.586Z,94811.57
2019-03-17T11:20:37.056Z,94816.36
2019-03-17T11:23:06.646Z,94805.74
2019-03-17T11:25:36.098Z,94793.20
2019-03-17T11:28:05.627Z,94791.52
2019-03-17T11:30:35.147Z,94785.23
2019-03-17T11:33:04.567Z,94777.20
2019-03-17T11:35:34.045Z,94777.09
2019-03-17T11:38:03.548Z,94769.17
2019-03-17T11:40:33.041Z,94760.42
2019-03-17T11:43:02.610Z,94755.71
2019-03-17T11:45:32.172Z,94756.97
2019-03-17T11:48:01.769Z,94745.30
2019-03-17T11:50:31.250Z,94745.03
2019-03-17T11:53:00.741Z,94741.64
2019-03-17T11:55:31.834Z,94740.39
2019-03-17T11:58:01.465Z,94734.04
2019-03-17T12:00:31.029Z,94729.91
2019-03-17T12:03:00.532Z,94729.95
2019-03-17T12:05:30.044Z,94716.11
2019-03-17T12:07:59.502Z,94718.55
2019-03-17T12:10:29.042Z,94710.89
2019-03-17T12:12:58.511Z,94710.42
2019-03-17T12:15:28.061Z,94711.58
2019-03-17T12:17:57.555Z,94711.29
2019-03-17T12:20:27.017Z,94707.56
2019-03-17T12:22:56.636Z,94713.38
2019-03-17T12:25:26.129Z,94700.03
2019-03-17T12:27:55.733Z,94692.59
2019-03-17T12:30:25.359Z,94697.20
2019-03-17T12:32:55.246Z,94693.47
2019-03-17T12:35:24.851Z,94686.30
2019-03-17T12:37:54.487Z,94684.16
2019-03-17T12:40:23.982Z,94676.42
2019-03-17T12:42:53.474Z,94676.98
2019-03-17T12:45:22.941Z,94679.64
2019-03-17T12:47:52.483Z,94682.59
2019-03-17T12:50:21.973Z,94673.80
2019-03-17T12:52:51.468Z,94675.39
2019-03-17T12:55:20.945Z,94672.20
2019-03-17T12:57:50.420Z,94668.48
2019-03-17T13:00:19.972Z,94671.39
2019-03-17T13:02:49.428Z,94663.42
2019-03-17T13:05:19.036Z,94671.42
2019-03-17T13:07:48.608Z,94661.80
2019-03-17T13:10:18.074Z,94666.34
2019-03-17T13:12:47.572Z,94667.14
2019-03-17T13:15:17.183Z,94664.73
2019-03-17T13:17:46.702Z,94659.93
2019-03-17T13:20:16.358Z,94656.47
2019-03-17T13:22:45.839Z,94660.21
2019-03-17T13:25:15.461Z,94647.66
2019-03-17T13:27:44.932Z,94646.90
2019-03-17T13:30:14.592Z,94657.56
2019-03-17T13:32:44.215Z,94646.08
2019-03-17T13:35:13.794Z,94642.88
2019-03-17T13:37:43.316Z,94638.88
2019-03-17T13:40:13.175Z,94633.23
2019-03-17T13:42:42.735Z,94630.56
2019-03-17T13:45:12.345Z,94636.44
2019-03-17T13:47:41.857Z,94631.39
2019-03-17T13:50:13.258Z,94626.34
2019-03-17T13:52:42.756Z,94619.09
2019-03-17T13:55:12.392Z,94622.32
2019-03-17T13:57:42.797Z,94612.72
2019-03-17T14:00:14.637Z,94627.64
2019-03-17T14:02:44.166Z,94618.83
2019-03-17T14:05:14.574Z,94614.85
2019-03-17T14:07:44.126Z,94616.19
2019-03-17T14:10:15.234Z,94608.42
2019-03-17T14:12:44.791Z,94609.47
2019-03-17T14:15:14.783Z,94607.59
2019-03-17T14:17:44.382Z,94597.45
2019-03-17T14:20:15.815Z,94598.22
2019-03-17T14:22:45.335Z,94593.72
2019-03-17T14:25:17.400Z,94597.45
2019-03-17T14:27:46.884Z,94593.19
2019-03-17T14:30:16.710Z,94596.32
2019-03-17T14:32:46.211Z,94589.16
2019-03-17T14:35:15.761Z,94594.26
2019-03-17T14:37:45.306Z,94596.92
2019-03-17T14:40:15.129Z,94587.59
2019-03-17T14:42:44.980Z,94583.25
2019-03-17T14:45:15.247Z,94592.58
2019-03-17T14:47:44.801Z,94594.45
2019-03-17T14:50:16.246Z,94589.07
2019-03-17T14:52:45.754Z,94598.45
2019-03-17T14:55:15.335Z,94595.25
2019-03-17T14:57:44.889Z,94592.05
2019-03-17T15:00:16.522Z,94590.45
2019-03-17T15:02:46.154Z,94586.75
2019-03-17T15:05:15.735Z,94586.75
2019-03-17T15:07:45.295Z,94592.35
2019-03-17T15:10:16.285Z,94588.08
2019-03-17T15:12:45.969Z,94586.22
2019-03-17T15:15:16.215Z,94581.72
2019-03-17T15:17:45.797Z,94583.28
2019-03-17T15:20:16.833Z,94582.48
2019-03-17T15:22:46.481Z,94583.28
2019-03-17T15:25:16.027Z,94581.18
2019-03-17T15:27:45.514Z,94588.13
2019-03-17T15:30:19.922Z,94587.05
2019-03-17T15:32:49.430Z,94591.85
2019-03-17T15:35:19.083Z,94593.19
2019-03-17T15:37:48.703Z,94595.33
2019-03-17T15:40:18.267Z,94601.46
2019-03-17T15:42:47.837Z,94604.42
2019-03-17T15:45:17.359Z,94603.89
2019-03-17T15:47:47.108Z,94601.75
2019-03-17T15:50:17.686Z,94610.59
2019-03-17T15:52:47.332Z,94609.52
2019-03-17T15:55:16.948Z,94609.02
2019-03-17T15:57:47.072Z,94612.47
2019-03-17T16:00:24.833Z,94611.43
2019-03-17T16:02:49.679Z,94609.53
2019-03-17T16:05:19.287Z,94610.88
2019-03-17T16:07:48.799Z,94611.70
2019-03-17T16:10:19.512Z,94620.21
2019-03-17T16:12:49.066Z,94618.09
2019-03-17T16:15:18.759Z,94621.03
2019-03-17T16:17:50.118Z,94618.37
2019-03-17T16:20:20.261Z,94618.91
2019-03-17T16:22:49.887Z,94617.57
2019-03-17T16:25:19.684Z,94615.17
2019-03-17T16:27:49.256Z,94617.28
2019-03-17T16:30:20.632Z,94625.49
2019-03-17T16:32:50.160Z,94629.48
2019-03-17T16:35:19.939Z,94623.59
2019-03-17T16:37:49.455Z,94623.57
2019-03-17T16:40:20.977Z,94623.54
2019-03-17T16:42:53.551Z,94623.50
2019-03-17T16:45:22.655Z,94625.63
2019-03-17T16:47:52.318Z,94626.11
2019-03-17T16:50:22.238Z,94631.61
2019-03-17T16:52:52.227Z,94631.00
2019-03-17T16:55:21.769Z,94628.29
2019-03-17T16:57:52.325Z,94631.11
2019-03-17T17:00:23.914Z,94632.63
2019-03-17T17:02:53.735Z,94632.00
2019-03-17T17:05:23.432Z,94637.51
2019-03-17T17:07:53.497Z,94641.07
2019-03-17T17:10:23.131Z,94636.91
2019-03-17T17:12:52.724Z,94644.21
2019-03-17T17:15:25.506Z,94637.26
2019-03-17T17:17:55.069Z,94639.08
2019-03-17T17:20:26.000Z,94637.72
2019-03-17T17:22:55.906Z,94642.39
2019-03-17T17:25:25.542Z,94638.62
2019-03-17T17:27:55.093Z,94642.00
2019-03-17T17:30:24.692Z,94644.56
2019-03-17T17:32:54.271Z,94639.66
2019-03-17T17:35:23.767Z,94646.49
2019-03-17T17:37:53.369Z,94651.13
2019-03-17T17:40:22.903Z,94647.86
2019-03-17T17:42:52.453Z,94655.95
2019-03-17T17:45:21.996Z,94655.81
2019-03-17T17:47:51.547Z,94661.02
2019-03-17T17:50:21.137Z,94660.35
2019-03-17T17:52:50.634Z,94662.55
2019-03-17T17:55:20.219Z,94664.24
2019-03-17T17:57:52.599Z,94663.23
2019-03-17T18:00:22.001Z,94667.89
2019-03-17T18:02:51.502Z,94664.80
2019-03-17T18:05:21.100Z,94663.60
2019-03-17T18:07:50.680Z,94663.22
2019-03-17T18:10:20.265Z,94663.95
2019-03-17T18:12:49.782Z,94667.30
2019-03-17T18:15:21.076Z,94661.41
2019-03-17T18:17:50.644Z,94661.12
2019-03-17T18:20:20.223Z,94670.38
2019-03-17T18:22:49.958Z,94662.31
2019-03-17T18:25:19.679Z,94659.24
2019-03-17T18:27:54.105Z,94662.41
2019-03-17T18:30:23.602Z,94666.34
2019-03-17T18:32:53.602Z,94660.95
2019-03-17T18:35:23.346Z,94665.58
2019-03-17T18:37:52.984Z,94659.63
2019-03-17T18:40:22.505Z,94662.27
2019-03-17T18:42:52.020Z,94661.70
2019-03-17T18:45:22.340Z,94656.33
2019-03-17T18:47:51.863Z,94657.53
2019-03-17T18:50:21.521Z,94658.42
2019-03-17T18:52:51.069Z,94652.89
2019-03-17T18:55:20.580Z,94656.99
2019-03-17T18:57:50.146Z,94651.59
2019-03-17T19:00:20.091Z,94651.55
2019-03-17T19:02:49.699Z,94658.38
2019-03-17T19:05:20.389Z,94657.06
2019-03-17T19:07:50.118Z,94653.27
2019-03-17T19:10:19.650Z,94660.91
2019-03-17T19:12:49.257Z,94656.72
2019-03-17T19:15:18.755Z,94660.00
2019-03-17T19:17:48.386Z,94657.55
2019-03-17T19:20:18.199Z,94659.91
2019-03-17T19:22:47.684Z,94660.42
2019-03-17T19:25:17.178Z,94660.06
2019-03-17T19:27:46.679Z,94651.75
2019-03-17T19:30:17.281Z,94654.84
2019-03-17T19:32:47.232Z,94654.61
2019-03-17T19:35:16.921Z,94650.14
2019-03-17T19:37:46.440Z,94659.08
2019-03-17T19:40:16.071Z,94657.30
2019-03-17T19:42:57.450Z,94659.36
2019-03-17T19:45:16.848Z,94657.52
2019-03-17T19:47:46.391Z,94666.07
2019-03-17T19:50:15.961Z,94658.78
2019-03-17T19:52:45.449Z,94658.78
2019-03-17T19:55:15.000Z,94658.33
2019-03-17T19:57:44.503Z,94668.55
2019-03-17T20:00:15.869Z,94670.50
2019-03-17T20:02:47.413Z,94673.18
2019-03-17T20:05:16.840Z,94675.20
2019-03-17T20:07:46.366Z,94675.02
2019-03-17T20:10:18.497Z,94676.41
2019-03-17T20:12:48.019Z,94668.32
2019-03-17T20:15:17.590Z,94673.20
2019-03-17T20:17:47.131Z,94669.93
2019-03-17T20:20:16.643Z,94667.30
2019-03-17T20:22:46.156Z,94670.81
2019-03-17T20:25:15.702Z,94669.34
2019-03-17T20:27:45.223Z,94667.70
2019-03-17T20:30:14.751Z,94674.63
2019-03-17T20:32:44.259Z,94671.55
2019-03-17T20:35:13.800Z,94673.01
2019-03-17T20:37:43.479Z,94677.44
2019-03-17T20:40:12.977Z,94675.89
2019-03-17T20:42:42.500Z,94673.44
2019-03-17T20:45:13.856Z,94667.58
2019-03-17T20:47:43.815Z,94664.42
2019-03-17T20:50:13.364Z,94661.94
2019-03-17T20:52:42.884Z,94666.80
2019-03-17T20:55:12.548Z,94664.25
2019-03-17T20:57:42.109Z,94660.95
2019-03-17T21:00:13.826Z,94656.08
2019-03-17T21:02:43.430Z,94656.47
2019-03-17T21:05:12.938Z,94657.20
2019-03-17T21:07:42.843Z,94649.81
2019-03-17T21:10:12.639Z,94652.67
2019-03-17T21:12:42.181Z,94651.95
2019-03-17T21:15:14.724Z,94649.75
2019-03-17T21:17:44.257Z,94645.41
2019-03-17T21:20:14.610Z,94652.00
2019-03-17T21:22:44.104Z,94650.77
2019-03-17T21:25:13.923Z,94653.48
2019-03-17T21:27:43.561Z,94650.55
2019-03-17T21:30:15.566Z,94646.91
2019-03-17T21:32:45.053Z,94643.61
2019-03-17T21:35:14.608Z,94642.00
2019-03-17T21:37:44.141Z,94647.55
2019-03-17T21:40:13.682Z,94648.95
2019-03-17T21:42:43.218Z,94653.71
2019-03-17T21:45:12.761Z,94660.00
2019-03-17T21:47:42.281Z,94653.42
2019-03-17T21:50:13.682Z,94663.22
2019-03-17T21:52:43.198Z,94660.98
2019-03-17T21:55:13.055Z,94658.50
2019-03-17T21:57:42.613Z,94667.84
2019-03-17T22:00:14.234Z,94664.39
2019-03-17T22:02:43.760Z,94675.85
2019-03-17T22:05:13.529Z,94677.09
2019-03-17T22:07:49.515Z,94677.30
2019-03-17T22:10:14.353Z,94676.47
2019-03-17T22:12:43.874Z,94668.40
2019-03-17T22:15:13.422Z,94676.53
2019-03-17T22:17:43.063Z,94675.57
2019-03-17T22:20:12.946Z,94673.33
2019-03-17T22:22:42.551Z,94671.92
2019-03-17T22:25:12.167Z,94666.43
2019-03-17T22:27:41.653Z,94667.30
2019-03-17T22:30:12.432Z,94664.78
2019-03-17T22:32:41.900Z,94664.78
2019-03-17T22:35:11.609Z,94668.44
2019-03-17T22:37:41.152Z,94666.99
2019-03-17T22:40:11.886Z,94670.84
2019-03-17T22:42:41.402Z,94673.22
2019-03-17T22:45:11.566Z,94670.24
2019-03-17T22:47:41.093Z,94675.81
2019-03-17T22:50:11.107Z,94674.59
2019-03-17T22:52:40.623Z,94671.96
2019-03-17T22:55:11.142Z,94669.84
2019-03-17T22:57:40.662Z,94669.23
2019-03-17T23:00:13.959Z,94669.91
2019-03-17T23:02:43.478Z,94671.47
2019-03-17T23:05:13.258Z,94674.08
2019-03-17T23:07:42.780Z,94685.22
2019-03-17T23:10:12.414Z,94690.80
2019-03-17T23:12:41.919Z,94679.42
2019-03-17T23:15:11.513Z,94684.95
2019-03-17T23:17:41.009Z,94690.42
2019-03-17T23:20:14.915Z,94685.38
2019-03-17T23:22:44.780Z,94693.25
2019-03-17T23:25:14.698Z,94686.61
2019-03-17T23:27:45.996Z,94685.59
2019-03-17T23:30:15.873Z,94693.08
2019-03-17T23:32:45.351Z,94694.83
2019-03-17T23:35:14.938Z,94687.41
2019-03-17T23:37:44.456Z,94694.19
2019-03-17T23:40:13.968Z,94693.39
2019-03-17T23:42:43.632Z,94703.28
2019-03-17T23:45:13.245Z,94699.55
2019-03-17T23:47:42.743Z,94703.77
2019-03-17T23:50:12.277Z,94694.05
2019-03-17T23:52:41.760Z,94700.31
2019-03-17T23:55:11.762Z,94703.44
2019-03-17T23:57:43.021Z,94699.88
